sensor_id;sensor_type;location;lat;lon;timestamp;P1;durP1;ratioP1;P2;durP2;ratioP2
16199;SDS011;8207;52.494;4.654;2023-03-23T00:00:57;12.30;;;6.60;;
16199;SDS011;8207;52.494;4.654;2023-03-23T00:03:24;9.57;;;5.67;;
16199;SDS011;8207;52.494;4.654;2023-03-23T00:05:53;10.73;;;5.70;;
16199;SDS011;8207;52.494;4.654;2023-03-23T00:08:24;10.40;;;5.00;;
16199;SDS011;8207;52.494;4.654;2023-03-23T00:10:51;7.27;;;5.67;;
16199;SDS011;8207;52.494;4.654;2023-03-23T00:13:21;8.43;;;4.77;;
16199;SDS011;8207;52.494;4.654;2023-03-23T00:15:48;9.23;;;4.70;;
16199;SDS011;8207;52.494;4.654;2023-03-23T00:18:18;8.50;;;4.93;;
16199;SDS011;8207;52.494;4.654;2023-03-23T00:20:48;8.27;;;5.17;;
16199;SDS011;8207;52.494;4.654;2023-03-23T00:23:16;12.67;;;4.33;;
16199;SDS011;8207;52.494;4.654;2023-03-23T00:25:45;8.63;;;5.00;;
16199;SDS011;8207;52.494;4.654;2023-03-23T00:28:13;9.77;;;4.80;;
16199;SDS011;8207;52.494;4.654;2023-03-23T00:30:40;5.70;;;4.03;;
16199;SDS011;8207;52.494;4.654;2023-03-23T00:33:09;5.73;;;3.60;;
16199;SDS011;8207;52.494;4.654;2023-03-23T00:35:40;7.57;;;4.20;;
16199;SDS011;8207;52.494;4.654;2023-03-23T00:38:09;10.13;;;5.50;;
16199;SDS011;8207;52.494;4.654;2023-03-23T00:40:36;15.43;;;5.03;;
16199;SDS011;8207;52.494;4.654;2023-03-23T00:43:03;12.67;;;4.30;;
16199;SDS011;8207;52.494;4.654;2023-03-23T00:45:30;12.93;;;4.60;;
16199;SDS011;8207;52.494;4.654;2023-03-23T00:47:59;10.80;;;4.70;;
16199;SDS011;8207;52.494;4.654;2023-03-23T00:50:29;11.90;;;4.30;;
16199;SDS011;8207;52.494;4.654;2023-03-23T00:52:57;9.23;;;3.70;;
16199;SDS011;8207;52.494;4.654;2023-03-23T00:55:25;6.33;;;3.50;;
16199;SDS011;8207;52.494;4.654;2023-03-23T00:57:52;6.37;;;3.30;;
16199;SDS011;8207;52.494;4.654;2023-03-23T01:00:19;7.47;;;2.90;;
16199;SDS011;8207;52.494;4.654;2023-03-23T01:02:47;10.90;;;3.10;;
16199;SDS011;8207;52.494;4.654;2023-03-23T01:05:16;5.07;;;2.23;;
16199;SDS011;8207;52.494;4.654;2023-03-23T01:07:43;7.07;;;3.00;;
16199;SDS011;8207;52.494;4.654;2023-03-23T01:10:12;5.60;;;2.30;;
16199;SDS011;8207;52.494;4.654;2023-03-23T01:12:41;4.53;;;2.40;;
16199;SDS011;8207;52.494;4.654;2023-03-23T01:15:12;5.10;;;2.50;;
16199;SDS011;8207;52.494;4.654;2023-03-23T01:17:41;6.07;;;2.43;;
16199;SDS011;8207;52.494;4.654;2023-03-23T01:20:08;7.23;;;2.30;;
16199;SDS011;8207;52.494;4.654;2023-03-23T01:22:37;4.80;;;2.37;;
16199;SDS011;8207;52.494;4.654;2023-03-23T01:25:04;6.43;;;2.37;;
16199;SDS011;8207;52.494;4.654;2023-03-23T01:27:33;5.20;;;2.27;;
16199;SDS011;8207;52.494;4.654;2023-03-23T01:30:00;6.27;;;2.37;;
16199;SDS011;8207;52.494;4.654;2023-03-23T01:32:27;5.67;;;2.77;;
16199;SDS011;8207;52.494;4.654;2023-03-23T01:34:54;5.33;;;2.20;;
16199;SDS011;8207;52.494;4.654;2023-03-23T01:37:21;9.87;;;3.30;;
16199;SDS011;8207;52.494;4.654;2023-03-23T01:39:51;4.97;;;1.97;;
16199;SDS011;8207;52.494;4.654;2023-03-23T01:42:21;3.43;;;1.90;;
16199;SDS011;8207;52.494;4.654;2023-03-23T01:47:55;5.93;;;2.07;;
16199;SDS011;8207;52.494;4.654;2023-03-23T01:50:25;7.07;;;2.13;;
16199;SDS011;8207;52.494;4.654;2023-03-23T01:52:54;4.37;;;2.30;;
16199;SDS011;8207;52.494;4.654;2023-03-23T01:55:23;6.90;;;2.33;;
16199;SDS011;8207;52.494;4.654;2023-03-23T01:57:53;5.37;;;2.10;;
16199;SDS011;8207;52.494;4.654;2023-03-23T02:00:22;4.97;;;2.10;;
16199;SDS011;8207;52.494;4.654;2023-03-23T02:02:50;5.17;;;1.93;;
16199;SDS011;8207;52.494;4.654;2023-03-23T02:05:20;9.67;;;2.93;;
16199;SDS011;8207;52.494;4.654;2023-03-23T02:07:53;6.43;;;2.30;;
16199;SDS011;8207;52.494;4.654;2023-03-23T02:10:20;8.43;;;2.53;;
16199;SDS011;8207;52.494;4.654;2023-03-23T02:12:47;11.17;;;2.80;;
16199;SDS011;8207;52.494;4.654;2023-03-23T02:15:14;6.73;;;2.70;;
16199;SDS011;8207;52.494;4.654;2023-03-23T02:17:42;8.87;;;2.80;;
16199;SDS011;8207;52.494;4.654;2023-03-23T02:20:21;7.90;;;2.43;;
16199;SDS011;8207;52.494;4.654;2023-03-23T02:23:04;9.77;;;3.13;;
16199;SDS011;8207;52.494;4.654;2023-03-23T02:25:58;6.10;;;2.73;;
16199;SDS011;8207;52.494;4.654;2023-03-23T02:28:43;6.20;;;3.17;;
16199;SDS011;8207;52.494;4.654;2023-03-23T02:31:42;6.63;;;2.50;;
16199;SDS011;8207;52.494;4.654;2023-03-23T02:34:15;6.47;;;2.63;;
16199;SDS011;8207;52.494;4.654;2023-03-23T02:36:45;7.07;;;2.67;;
16199;SDS011;8207;52.494;4.654;2023-03-23T02:39:17;8.63;;;2.87;;
16199;SDS011;8207;52.494;4.654;2023-03-23T02:41:49;6.13;;;2.70;;
16199;SDS011;8207;52.494;4.654;2023-03-23T02:44:19;7.83;;;3.03;;
16199;SDS011;8207;52.494;4.654;2023-03-23T02:46:47;7.60;;;3.03;;
16199;SDS011;8207;52.494;4.654;2023-03-23T02:49:16;9.93;;;3.03;;
16199;SDS011;8207;52.494;4.654;2023-03-23T02:51:46;10.60;;;3.53;;
16199;SDS011;8207;52.494;4.654;2023-03-23T02:54:14;7.60;;;2.90;;
16199;SDS011;8207;52.494;4.654;2023-03-23T02:56:43;10.80;;;3.27;;
16199;SDS011;8207;52.494;4.654;2023-03-23T02:59:11;9.77;;;2.90;;
16199;SDS011;8207;52.494;4.654;2023-03-23T03:01:46;12.33;;;3.43;;
16199;SDS011;8207;52.494;4.654;2023-03-23T03:04:25;10.77;;;2.70;;
16199;SDS011;8207;52.494;4.654;2023-03-23T03:07:01;7.70;;;2.73;;
16199;SDS011;8207;52.494;4.654;2023-03-23T03:09:42;10.47;;;2.97;;
16199;SDS011;8207;52.494;4.654;2023-03-23T03:12:15;8.93;;;3.23;;
16199;SDS011;8207;52.494;4.654;2023-03-23T03:14:48;11.77;;;2.93;;
16199;SDS011;8207;52.494;4.654;2023-03-23T03:17:20;12.23;;;3.70;;
16199;SDS011;8207;52.494;4.654;2023-03-23T03:19:52;9.80;;;3.83;;
16199;SDS011;8207;52.494;4.654;2023-03-23T03:22:23;8.00;;;3.57;;
16199;SDS011;8207;52.494;4.654;2023-03-23T03:24:54;12.67;;;3.73;;
16199;SDS011;8207;52.494;4.654;2023-03-23T03:27:24;8.20;;;3.23;;
16199;SDS011;8207;52.494;4.654;2023-03-23T03:29:53;7.97;;;3.20;;
16199;SDS011;8207;52.494;4.654;2023-03-23T03:32:24;11.50;;;3.10;;
16199;SDS011;8207;52.494;4.654;2023-03-23T03:34:59;13.67;;;3.87;;
16199;SDS011;8207;52.494;4.654;2023-03-23T03:37:32;12.93;;;3.70;;
16199;SDS011;8207;52.494;4.654;2023-03-23T03:40:02;19.63;;;4.20;;
16199;SDS011;8207;52.494;4.654;2023-03-23T03:42:35;19.03;;;6.10;;
16199;SDS011;8207;52.494;4.654;2023-03-23T03:45:03;18.07;;;5.60;;
16199;SDS011;8207;52.494;4.654;2023-03-23T03:47:31;21.17;;;5.37;;
16199;SDS011;8207;52.494;4.654;2023-03-23T03:49:57;16.80;;;4.97;;
16199;SDS011;8207;52.494;4.654;2023-03-23T03:52:26;22.10;;;6.13;;
16199;SDS011;8207;52.494;4.654;2023-03-23T03:54:53;21.63;;;5.13;;
16199;SDS011;8207;52.494;4.654;2023-03-23T03:57:21;21.73;;;5.70;;
16199;SDS011;8207;52.494;4.654;2023-03-23T03:59:48;19.73;;;8.00;;
16199;SDS011;8207;52.494;4.654;2023-03-23T04:02:14;21.83;;;6.77;;
16199;SDS011;8207;52.494;4.654;2023-03-23T04:04:45;31.40;;;7.93;;
16199;SDS011;8207;52.494;4.654;2023-03-23T04:07:13;21.33;;;4.60;;
16199;SDS011;8207;52.494;4.654;2023-03-23T04:09:41;18.20;;;4.57;;
16199;SDS011;8207;52.494;4.654;2023-03-23T04:12:08;17.63;;;5.37;;
16199;SDS011;8207;52.494;4.654;2023-03-23T04:14:35;29.07;;;4.77;;
16199;SDS011;8207;52.494;4.654;2023-03-23T04:17:02;25.40;;;4.70;;
16199;SDS011;8207;52.494;4.654;2023-03-23T04:19:29;20.67;;;4.70;;
16199;SDS011;8207;52.494;4.654;2023-03-23T04:21:58;16.13;;;4.73;;
16199;SDS011;8207;52.494;4.654;2023-03-23T04:24:26;17.93;;;4.53;;
16199;SDS011;8207;52.494;4.654;2023-03-23T04:26:57;21.30;;;4.60;;
16199;SDS011;8207;52.494;4.654;2023-03-23T04:29:24;24.47;;;4.73;;
16199;SDS011;8207;52.494;4.654;2023-03-23T04:31:51;23.67;;;4.43;;
16199;SDS011;8207;52.494;4.654;2023-03-23T04:34:20;19.10;;;4.70;;
16199;SDS011;8207;52.494;4.654;2023-03-23T04:36:48;20.33;;;4.80;;
16199;SDS011;8207;52.494;4.654;2023-03-23T04:39:15;20.50;;;5.03;;
16199;SDS011;8207;52.494;4.654;2023-03-23T04:41:44;12.87;;;3.70;;
16199;SDS011;8207;52.494;4.654;2023-03-23T04:44:11;22.30;;;4.90;;
16199;SDS011;8207;52.494;4.654;2023-03-23T04:46:43;26.73;;;6.80;;
16199;SDS011;8207;52.494;4.654;2023-03-23T04:49:14;23.97;;;6.13;;
16199;SDS011;8207;52.494;4.654;2023-03-23T04:51:46;20.50;;;5.93;;
16199;SDS011;8207;52.494;4.654;2023-03-23T04:54:15;22.27;;;5.37;;
16199;SDS011;8207;52.494;4.654;2023-03-23T04:56:43;19.00;;;4.90;;
16199;SDS011;8207;52.494;4.654;2023-03-23T04:59:10;28.60;;;5.30;;
16199;SDS011;8207;52.494;4.654;2023-03-23T05:01:38;30.30;;;6.53;;
16199;SDS011;8207;52.494;4.654;2023-03-23T05:04:10;20.57;;;5.20;;
16199;SDS011;8207;52.494;4.654;2023-03-23T05:06:38;29.67;;;7.70;;
16199;SDS011;8207;52.494;4.654;2023-03-23T05:09:06;32.90;;;6.27;;
16199;SDS011;8207;52.494;4.654;2023-03-23T05:11:32;25.93;;;6.13;;
16199;SDS011;8207;52.494;4.654;2023-03-23T05:14:01;25.07;;;5.87;;
16199;SDS011;8207;52.494;4.654;2023-03-23T05:16:29;35.60;;;6.77;;
16199;SDS011;8207;52.494;4.654;2023-03-23T05:18:56;34.17;;;6.30;;
16199;SDS011;8207;52.494;4.654;2023-03-23T05:21:23;32.87;;;8.13;;
16199;SDS011;8207;52.494;4.654;2023-03-23T05:23:51;32.97;;;6.90;;
16199;SDS011;8207;52.494;4.654;2023-03-23T05:26:21;32.40;;;6.33;;
16199;SDS011;8207;52.494;4.654;2023-03-23T05:28:50;29.37;;;7.47;;
16199;SDS011;8207;52.494;4.654;2023-03-23T05:31:19;25.40;;;6.60;;
16199;SDS011;8207;52.494;4.654;2023-03-23T05:33:46;29.47;;;6.63;;
16199;SDS011;8207;52.494;4.654;2023-03-23T05:36:13;35.73;;;6.20;;
16199;SDS011;8207;52.494;4.654;2023-03-23T05:38:41;29.17;;;6.33;;
16199;SDS011;8207;52.494;4.654;2023-03-23T05:41:10;30.97;;;6.70;;
16199;SDS011;8207;52.494;4.654;2023-03-23T05:43:37;27.00;;;6.00;;
16199;SDS011;8207;52.494;4.654;2023-03-23T05:46:04;28.97;;;6.10;;
16199;SDS011;8207;52.494;4.654;2023-03-23T05:48:33;26.27;;;5.33;;
16199;SDS011;8207;52.494;4.654;2023-03-23T05:51:00;29.00;;;7.20;;
16199;SDS011;8207;52.494;4.654;2023-03-23T05:53:27;24.47;;;6.13;;
16199;SDS011;8207;52.494;4.654;2023-03-23T05:55:57;29.50;;;6.23;;
16199;SDS011;8207;52.494;4.654;2023-03-23T05:58:24;30.37;;;6.97;;
16199;SDS011;8207;52.494;4.654;2023-03-23T06:00:51;32.53;;;6.80;;
16199;SDS011;8207;52.494;4.654;2023-03-23T06:03:18;33.13;;;7.03;;
16199;SDS011;8207;52.494;4.654;2023-03-23T06:05:47;34.80;;;7.97;;
16199;SDS011;8207;52.494;4.654;2023-03-23T06:08:15;28.63;;;6.67;;
16199;SDS011;8207;52.494;4.654;2023-03-23T06:10:42;33.70;;;7.10;;
16199;SDS011;8207;52.494;4.654;2023-03-23T06:13:09;48.47;;;9.53;;
16199;SDS011;8207;52.494;4.654;2023-03-23T06:15:35;41.37;;;9.20;;
16199;SDS011;8207;52.494;4.654;2023-03-23T06:18:02;38.80;;;8.17;;
16199;SDS011;8207;52.494;4.654;2023-03-23T06:20:30;42.30;;;8.90;;
16199;SDS011;8207;52.494;4.654;2023-03-23T06:22:59;38.10;;;8.80;;
16199;SDS011;8207;52.494;4.654;2023-03-23T06:25:26;35.53;;;9.53;;
16199;SDS011;8207;52.494;4.654;2023-03-23T06:27:53;44.20;;;9.23;;
16199;SDS011;8207;52.494;4.654;2023-03-23T06:30:20;40.87;;;9.77;;
16199;SDS011;8207;52.494;4.654;2023-03-23T06:32:47;55.80;;;9.43;;
16199;SDS011;8207;52.494;4.654;2023-03-23T06:35:15;39.77;;;9.97;;
16199;SDS011;8207;52.494;4.654;2023-03-23T06:37:42;41.13;;;9.10;;
16199;SDS011;8207;52.494;4.654;2023-03-23T06:40:11;41.33;;;9.50;;
16199;SDS011;8207;52.494;4.654;2023-03-23T06:42:38;44.77;;;9.40;;
16199;SDS011;8207;52.494;4.654;2023-03-23T06:45:05;43.77;;;9.73;;
16199;SDS011;8207;52.494;4.654;2023-03-23T06:47:32;39.77;;;9.67;;
16199;SDS011;8207;52.494;4.654;2023-03-23T06:49:59;34.37;;;7.87;;
16199;SDS011;8207;52.494;4.654;2023-03-23T06:52:26;38.43;;;8.13;;
16199;SDS011;8207;52.494;4.654;2023-03-23T06:54:53;45.13;;;9.17;;
16199;SDS011;8207;52.494;4.654;2023-03-23T06:57:22;42.13;;;8.17;;
16199;SDS011;8207;52.494;4.654;2023-03-23T06:59:48;45.77;;;10.47;;
16199;SDS011;8207;52.494;4.654;2023-03-23T07:02:15;39.13;;;9.43;;
16199;SDS011;8207;52.494;4.654;2023-03-23T07:04:42;37.53;;;10.57;;
16199;SDS011;8207;52.494;4.654;2023-03-23T07:07:10;37.77;;;7.77;;
16199;SDS011;8207;52.494;4.654;2023-03-23T07:09:39;44.67;;;9.57;;
16199;SDS011;8207;52.494;4.654;2023-03-23T07:12:07;33.10;;;7.53;;
16199;SDS011;8207;52.494;4.654;2023-03-23T07:14:36;39.37;;;8.27;;
16199;SDS011;8207;52.494;4.654;2023-03-23T07:17:03;42.33;;;9.50;;
16199;SDS011;8207;52.494;4.654;2023-03-23T07:19:30;46.50;;;10.70;;
16199;SDS011;8207;52.494;4.654;2023-03-23T07:21:57;52.10;;;10.10;;
16199;SDS011;8207;52.494;4.654;2023-03-23T07:24:25;43.50;;;10.10;;
16199;SDS011;8207;52.494;4.654;2023-03-23T07:26:53;42.03;;;8.67;;
16199;SDS011;8207;52.494;4.654;2023-03-23T07:29:21;35.53;;;9.57;;
16199;SDS011;8207;52.494;4.654;2023-03-23T07:31:49;44.60;;;8.97;;
16199;SDS011;8207;52.494;4.654;2023-03-23T07:34:16;38.60;;;9.77;;
16199;SDS011;8207;52.494;4.654;2023-03-23T07:36:44;42.33;;;10.70;;
16199;SDS011;8207;52.494;4.654;2023-03-23T07:39:11;37.50;;;9.63;;
16199;SDS011;8207;52.494;4.654;2023-03-23T07:41:38;34.93;;;8.13;;
16199;SDS011;8207;52.494;4.654;2023-03-23T07:44:05;36.33;;;9.37;;
16199;SDS011;8207;52.494;4.654;2023-03-23T07:46:32;43.50;;;8.20;;
16199;SDS011;8207;52.494;4.654;2023-03-23T07:49:01;38.10;;;7.70;;
16199;SDS011;8207;52.494;4.654;2023-03-23T07:51:30;36.53;;;8.40;;
16199;SDS011;8207;52.494;4.654;2023-03-23T07:53:57;35.40;;;8.07;;
16199;SDS011;8207;52.494;4.654;2023-03-23T07:56:24;34.87;;;8.00;;
16199;SDS011;8207;52.494;4.654;2023-03-23T07:58:51;35.03;;;9.20;;
16199;SDS011;8207;52.494;4.654;2023-03-23T08:01:26;39.57;;;7.20;;
16199;SDS011;8207;52.494;4.654;2023-03-23T08:04:00;27.60;;;6.67;;
16199;SDS011;8207;52.494;4.654;2023-03-23T08:06:27;31.23;;;7.27;;
16199;SDS011;8207;52.494;4.654;2023-03-23T08:08:55;36.30;;;7.67;;
16199;SDS011;8207;52.494;4.654;2023-03-23T08:11:21;31.20;;;7.70;;
16199;SDS011;8207;52.494;4.654;2023-03-23T08:13:48;33.40;;;8.50;;
16199;SDS011;8207;52.494;4.654;2023-03-23T08:16:15;36.17;;;8.30;;
16199;SDS011;8207;52.494;4.654;2023-03-23T08:18:44;29.80;;;6.83;;
16199;SDS011;8207;52.494;4.654;2023-03-23T08:21:12;30.43;;;6.27;;
16199;SDS011;8207;52.494;4.654;2023-03-23T08:23:39;22.23;;;6.00;;
16199;SDS011;8207;52.494;4.654;2023-03-23T08:26:07;30.20;;;6.40;;
16199;SDS011;8207;52.494;4.654;2023-03-23T08:28:35;29.30;;;5.80;;
16199;SDS011;8207;52.494;4.654;2023-03-23T08:31:05;29.20;;;6.07;;
16199;SDS011;8207;52.494;4.654;2023-03-23T08:33:32;27.63;;;6.40;;
16199;SDS011;8207;52.494;4.654;2023-03-23T08:35:59;29.33;;;6.33;;
16199;SDS011;8207;52.494;4.654;2023-03-23T08:38:29;26.97;;;5.73;;
16199;SDS011;8207;52.494;4.654;2023-03-23T08:40:57;27.43;;;6.47;;
16199;SDS011;8207;52.494;4.654;2023-03-23T08:43:24;25.60;;;4.73;;
16199;SDS011;8207;52.494;4.654;2023-03-23T08:45:52;18.73;;;5.57;;
16199;SDS011;8207;52.494;4.654;2023-03-23T08:48:19;20.47;;;4.87;;
16199;SDS011;8207;52.494;4.654;2023-03-23T08:50:47;23.30;;;4.80;;
16199;SDS011;8207;52.494;4.654;2023-03-23T08:53:15;21.80;;;5.03;;
16199;SDS011;8207;52.494;4.654;2023-03-23T08:55:43;23.00;;;4.70;;
16199;SDS011;8207;52.494;4.654;2023-03-23T08:58:10;22.60;;;4.73;;
16199;SDS011;8207;52.494;4.654;2023-03-23T09:00:37;25.27;;;4.83;;
16199;SDS011;8207;52.494;4.654;2023-03-23T09:03:04;17.50;;;4.87;;
16199;SDS011;8207;52.494;4.654;2023-03-23T09:05:32;19.53;;;4.20;;
16199;SDS011;8207;52.494;4.654;2023-03-23T09:07:59;20.10;;;5.27;;
16199;SDS011;8207;52.494;4.654;2023-03-23T09:10:26;20.40;;;5.50;;
16199;SDS011;8207;52.494;4.654;2023-03-23T09:12:56;24.53;;;5.27;;
16199;SDS011;8207;52.494;4.654;2023-03-23T09:15:23;20.87;;;5.00;;
16199;SDS011;8207;52.494;4.654;2023-03-23T09:17:51;25.33;;;4.57;;
16199;SDS011;8207;52.494;4.654;2023-03-23T09:20:20;18.80;;;4.73;;
16199;SDS011;8207;52.494;4.654;2023-03-23T09:22:49;18.37;;;4.37;;
16199;SDS011;8207;52.494;4.654;2023-03-23T09:25:18;23.93;;;4.97;;
16199;SDS011;8207;52.494;4.654;2023-03-23T09:27:48;20.53;;;4.70;;
16199;SDS011;8207;52.494;4.654;2023-03-23T09:30:19;24.93;;;4.90;;
16199;SDS011;8207;52.494;4.654;2023-03-23T09:32:47;19.33;;;4.13;;
16199;SDS011;8207;52.494;4.654;2023-03-23T09:35:14;20.87;;;4.87;;
16199;SDS011;8207;52.494;4.654;2023-03-23T09:37:42;19.00;;;4.23;;
16199;SDS011;8207;52.494;4.654;2023-03-23T09:40:11;16.33;;;4.17;;
16199;SDS011;8207;52.494;4.654;2023-03-23T09:42:47;22.00;;;5.77;;
16199;SDS011;8207;52.494;4.654;2023-03-23T09:45:23;20.83;;;4.60;;
16199;SDS011;8207;52.494;4.654;2023-03-23T09:48:02;23.47;;;4.87;;
16199;SDS011;8207;52.494;4.654;2023-03-23T09:50:42;25.93;;;5.07;;
16199;SDS011;8207;52.494;4.654;2023-03-23T09:53:14;29.97;;;5.60;;
16199;SDS011;8207;52.494;4.654;2023-03-23T09:55:45;21.90;;;4.43;;
16199;SDS011;8207;52.494;4.654;2023-03-23T09:58:15;22.97;;;5.67;;
16199;SDS011;8207;52.494;4.654;2023-03-23T10:00:51;29.30;;;4.90;;
16199;SDS011;8207;52.494;4.654;2023-03-23T10:03:25;19.33;;;6.70;;
16199;SDS011;8207;52.494;4.654;2023-03-23T10:05:57;21.07;;;4.53;;
16199;SDS011;8207;52.494;4.654;2023-03-23T10:08:30;18.97;;;4.63;;
16199;SDS011;8207;52.494;4.654;2023-03-23T10:11:00;25.57;;;6.37;;
16199;SDS011;8207;52.494;4.654;2023-03-23T10:13:45;19.20;;;5.03;;
16199;SDS011;8207;52.494;4.654;2023-03-23T10:16:24;24.20;;;4.97;;
16199;SDS011;8207;52.494;4.654;2023-03-23T10:18:55;21.83;;;4.97;;
16199;SDS011;8207;52.494;4.654;2023-03-23T10:21:26;34.33;;;6.97;;
16199;SDS011;8207;52.494;4.654;2023-03-23T10:23:57;19.07;;;5.30;;
16199;SDS011;8207;52.494;4.654;2023-03-23T10:26:31;21.83;;;5.60;;
16199;SDS011;8207;52.494;4.654;2023-03-23T10:29:08;18.87;;;4.93;;
16199;SDS011;8207;52.494;4.654;2023-03-23T10:31:41;21.33;;;5.50;;
16199;SDS011;8207;52.494;4.654;2023-03-23T10:34:12;23.77;;;5.53;;
16199;SDS011;8207;52.494;4.654;2023-03-23T10:36:50;24.80;;;5.03;;
16199;SDS011;8207;52.494;4.654;2023-03-23T10:39:23;16.30;;;3.83;;
16199;SDS011;8207;52.494;4.654;2023-03-23T10:41:53;21.53;;;4.23;;
16199;SDS011;8207;52.494;4.654;2023-03-23T10:44:21;21.27;;;5.23;;
16199;SDS011;8207;52.494;4.654;2023-03-23T10:46:53;19.43;;;5.07;;
16199;SDS011;8207;52.494;4.654;2023-03-23T10:49:25;20.30;;;4.20;;
16199;SDS011;8207;52.494;4.654;2023-03-23T10:51:57;18.30;;;4.50;;
16199;SDS011;8207;52.494;4.654;2023-03-23T10:54:32;27.50;;;5.70;;
16199;SDS011;8207;52.494;4.654;2023-03-23T10:57:12;18.53;;;4.57;;
16199;SDS011;8207;52.494;4.654;2023-03-23T10:59:45;20.47;;;5.13;;
16199;SDS011;8207;52.494;4.654;2023-03-23T11:02:16;19.63;;;4.73;;
16199;SDS011;8207;52.494;4.654;2023-03-23T11:04:45;23.80;;;4.83;;
16199;SDS011;8207;52.494;4.654;2023-03-23T11:07:18;21.13;;;5.73;;
16199;SDS011;8207;52.494;4.654;2023-03-23T11:09:51;18.07;;;4.47;;
16199;SDS011;8207;52.494;4.654;2023-03-23T11:12:19;20.80;;;5.03;;
16199;SDS011;8207;52.494;4.654;2023-03-23T11:14:48;21.93;;;5.27;;
16199;SDS011;8207;52.494;4.654;2023-03-23T11:17:21;26.03;;;4.47;;
16199;SDS011;8207;52.494;4.654;2023-03-23T11:19:50;19.70;;;5.17;;
16199;SDS011;8207;52.494;4.654;2023-03-23T11:22:20;28.80;;;7.20;;
16199;SDS011;8207;52.494;4.654;2023-03-23T11:24:54;20.80;;;5.10;;
16199;SDS011;8207;52.494;4.654;2023-03-23T11:27:23;17.00;;;5.17;;
16199;SDS011;8207;52.494;4.654;2023-03-23T11:29:52;21.20;;;4.97;;
16199;SDS011;8207;52.494;4.654;2023-03-23T11:32:23;25.17;;;5.37;;
16199;SDS011;8207;52.494;4.654;2023-03-23T11:34:53;15.27;;;4.80;;
16199;SDS011;8207;52.494;4.654;2023-03-23T11:37:25;25.13;;;5.17;;
16199;SDS011;8207;52.494;4.654;2023-03-23T11:39:57;15.13;;;4.83;;
16199;SDS011;8207;52.494;4.654;2023-03-23T11:42:25;25.27;;;5.77;;
16199;SDS011;8207;52.494;4.654;2023-03-23T11:45:07;23.87;;;5.93;;
16199;SDS011;8207;52.494;4.654;2023-03-23T11:47:43;20.27;;;5.20;;
16199;SDS011;8207;52.494;4.654;2023-03-23T11:50:23;18.93;;;4.03;;
16199;SDS011;8207;52.494;4.654;2023-03-23T11:52:58;15.83;;;4.70;;
16199;SDS011;8207;52.494;4.654;2023-03-23T11:55:30;22.48;;;5.13;;
16199;SDS011;8207;52.494;4.654;2023-03-23T11:58:09;25.25;;;5.53;;
16199;SDS011;8207;52.494;4.654;2023-03-23T12:00:39;19.10;;;5.77;;
16199;SDS011;8207;52.494;4.654;2023-03-23T12:03:13;23.77;;;5.27;;
16199;SDS011;8207;52.494;4.654;2023-03-23T12:05:44;22.52;;;5.80;;
16199;SDS011;8207;52.494;4.654;2023-03-23T12:08:19;20.48;;;5.05;;
16199;SDS011;8207;52.494;4.654;2023-03-23T12:10:57;19.55;;;4.97;;
16199;SDS011;8207;52.494;4.654;2023-03-23T12:13:35;18.80;;;5.32;;
16199;SDS011;8207;52.494;4.654;2023-03-23T12:16:19;20.45;;;4.65;;
16199;SDS011;8207;52.494;4.654;2023-03-23T12:18:54;21.80;;;4.35;;
16199;SDS011;8207;52.494;4.654;2023-03-23T12:21:28;19.00;;;4.80;;
16199;SDS011;8207;52.494;4.654;2023-03-23T12:24:03;17.52;;;4.28;;
16199;SDS011;8207;52.494;4.654;2023-03-23T12:26:39;17.83;;;3.93;;
16199;SDS011;8207;52.494;4.654;2023-03-23T12:29:25;16.45;;;4.30;;
16199;SDS011;8207;52.494;4.654;2023-03-23T12:32:19;16.37;;;4.37;;
16199;SDS011;8207;52.494;4.654;2023-03-23T12:35:01;18.52;;;4.25;;
16199;SDS011;8207;52.494;4.654;2023-03-23T12:37:38;15.70;;;4.53;;
16199;SDS011;8207;52.494;4.654;2023-03-23T12:40:23;17.50;;;4.55;;
16199;SDS011;8207;52.494;4.654;2023-03-23T12:42:59;17.48;;;4.22;;
16199;SDS011;8207;52.494;4.654;2023-03-23T12:45:42;15.77;;;4.13;;
16199;SDS011;8207;52.494;4.654;2023-03-23T12:48:21;12.68;;;4.00;;
16199;SDS011;8207;52.494;4.654;2023-03-23T12:51:02;20.80;;;4.20;;
16199;SDS011;8207;52.494;4.654;2023-03-23T12:53:38;14.73;;;4.40;;
16199;SDS011;8207;52.494;4.654;2023-03-23T12:56:12;18.65;;;3.72;;
16199;SDS011;8207;52.494;4.654;2023-03-23T12:58:44;17.53;;;4.10;;
16199;SDS011;8207;52.494;4.654;2023-03-23T13:01:13;12.38;;;4.10;;
16199;SDS011;8207;52.494;4.654;2023-03-23T13:03:48;21.30;;;4.78;;
16199;SDS011;8207;52.494;4.654;2023-03-23T13:06:22;16.70;;;4.35;;
16199;SDS011;8207;52.494;4.654;2023-03-23T13:08:56;16.30;;;3.65;;
16199;SDS011;8207;52.494;4.654;2023-03-23T13:11:32;14.70;;;4.03;;
16199;SDS011;8207;52.494;4.654;2023-03-23T13:14:02;17.08;;;4.50;;
16199;SDS011;8207;52.494;4.654;2023-03-23T13:16:38;15.30;;;3.92;;
16199;SDS011;8207;52.494;4.654;2023-03-23T13:19:12;18.50;;;4.68;;
16199;SDS011;8207;52.494;4.654;2023-03-23T13:21:47;17.30;;;3.55;;
16199;SDS011;8207;52.494;4.654;2023-03-23T13:24:23;18.80;;;4.22;;
16199;SDS011;8207;52.494;4.654;2023-03-23T13:26:53;17.63;;;4.57;;
16199;SDS011;8207;52.494;4.654;2023-03-23T13:29:22;17.40;;;3.50;;
16199;SDS011;8207;52.494;4.654;2023-03-23T13:31:52;21.60;;;4.45;;
16199;SDS011;8207;52.494;4.654;2023-03-23T13:34:32;18.13;;;4.55;;
16199;SDS011;8207;52.494;4.654;2023-03-23T13:37:03;23.02;;;5.15;;
16199;SDS011;8207;52.494;4.654;2023-03-23T13:39:32;13.32;;;3.78;;
16199;SDS011;8207;52.494;4.654;2023-03-23T13:42:03;16.67;;;5.57;;
16199;SDS011;8207;52.494;4.654;2023-03-23T13:44:53;21.38;;;4.10;;
16199;SDS011;8207;52.494;4.654;2023-03-23T13:47:26;18.73;;;4.22;;
16199;SDS011;8207;52.494;4.654;2023-03-23T13:49:56;15.13;;;4.70;;
16199;SDS011;8207;52.494;4.654;2023-03-23T13:52:36;13.23;;;3.70;;
16199;SDS011;8207;52.494;4.654;2023-03-23T13:55:17;17.80;;;4.53;;
16199;SDS011;8207;52.494;4.654;2023-03-23T13:57:56;25.70;;;6.60;;
16199;SDS011;8207;52.494;4.654;2023-03-23T14:00:33;20.20;;;5.33;;
16199;SDS011;8207;52.494;4.654;2023-03-23T14:03:13;22.30;;;5.07;;
16199;SDS011;8207;52.494;4.654;2023-03-23T14:05:43;25.30;;;5.33;;
16199;SDS011;8207;52.494;4.654;2023-03-23T14:08:14;19.97;;;4.93;;
16199;SDS011;8207;52.494;4.654;2023-03-23T14:10:50;27.63;;;5.20;;
16199;SDS011;8207;52.494;4.654;2023-03-23T14:13:28;19.10;;;4.57;;
16199;SDS011;8207;52.494;4.654;2023-03-23T14:15:59;28.03;;;5.53;;
16199;SDS011;8207;52.494;4.654;2023-03-23T14:18:30;28.53;;;5.53;;
16199;SDS011;8207;52.494;4.654;2023-03-23T14:21:01;25.60;;;5.97;;
16199;SDS011;8207;52.494;4.654;2023-03-23T14:23:31;20.55;;;4.65;;
16199;SDS011;8207;52.494;4.654;2023-03-23T14:26:02;23.20;;;5.57;;
16199;SDS011;8207;52.494;4.654;2023-03-23T14:28:37;15.98;;;4.53;;
16199;SDS011;8207;52.494;4.654;2023-03-23T14:31:05;23.67;;;5.63;;
16199;SDS011;8207;52.494;4.654;2023-03-23T14:33:42;19.23;;;4.77;;
16199;SDS011;8207;52.494;4.654;2023-03-23T14:36:09;25.33;;;5.03;;
16199;SDS011;8207;52.494;4.654;2023-03-23T14:38:38;21.20;;;5.07;;
16199;SDS011;8207;52.494;4.654;2023-03-23T14:41:05;22.93;;;5.40;;
16199;SDS011;8207;52.494;4.654;2023-03-23T14:43:33;19.70;;;4.67;;
16199;SDS011;8207;52.494;4.654;2023-03-23T14:46:01;19.83;;;4.97;;
16199;SDS011;8207;52.494;4.654;2023-03-23T14:48:33;23.52;;;5.90;;
16199;SDS011;8207;52.494;4.654;2023-03-23T14:51:02;23.03;;;5.23;;
16199;SDS011;8207;52.494;4.654;2023-03-23T14:53:33;20.80;;;4.53;;
16199;SDS011;8207;52.494;4.654;2023-03-23T14:56:06;17.00;;;4.78;;
16199;SDS011;8207;52.494;4.654;2023-03-23T14:58:37;24.40;;;5.97;;
16199;SDS011;8207;52.494;4.654;2023-03-23T15:01:05;21.20;;;5.40;;
16199;SDS011;8207;52.494;4.654;2023-03-23T15:03:35;22.20;;;5.85;;
16199;SDS011;8207;52.494;4.654;2023-03-23T15:06:06;21.67;;;5.47;;
16199;SDS011;8207;52.494;4.654;2023-03-23T15:08:37;15.47;;;4.23;;
16199;SDS011;8207;52.494;4.654;2023-03-23T15:11:10;17.23;;;5.43;;
16199;SDS011;8207;52.494;4.654;2023-03-23T15:13:42;18.50;;;5.10;;